Time;durP1;ratioP1;P1;durP2;ratioP2;P2;SDS_P1;SDS_P2;PMS_P1;PMS_P2;Temp;Humidity;BMP_temperature;BMP_pressure;BME280_temperature;BME280_humidity;BME280_pressure;Samples;Min_cycle;Max_cycle;Signal;HPM_P1;HPM_P2
2023/08/11 00:01:02;;;;;;;3.80;3.33;;;;;;;;;;5049671;28;20448;-80
2023/08/11 00:03:30;;;;;;;5.60;3.50;;;;;;;;;;5044050;28;21043;-81
2023/08/11 00:05:57;;;;;;;4.93;3.80;;;;;;;;;;5044295;28;20880;-80
2023/08/11 00:08:23;;;;;;;5.13;4.17;;;;;;;;;;5044568;28;20468;-80
2023/08/11 00:10:51;;;;;;;4.13;2.80;;;;;;;;;;5043938;28;20468;-80
2023/08/11 00:13:18;;;;;;;5.17;2.83;;;;;;;;;;5047080;28;20476;-80
2023/08/11 00:15:44;;;;;;;4.97;3.90;;;;;;;;;;5045287;28;20437;-80
2023/08/11 00:18:12;;;;;;;6.53;3.23;;;;;;;;;;5042316;28;21207;-80
2023/08/11 00:20:40;;;;;;;5.23;3.27;;;;;;;;;;5047113;28;20440;-80
2023/08/11 00:23:07;;;;;;;6.90;3.63;;;;;;;;;;5044124;28;20478;-80
2023/08/11 00:25:33;;;;;;;5.87;3.17;;;;;;;;;;5046615;28;20486;-80
2023/08/11 00:28:00;;;;;;;4.00;3.40;;;;;;;;;;5042522;28;20728;-80
2023/08/11 00:30:27;;;;;;;6.10;3.37;;;;;;;;;;5045040;28;20444;-80
2023/08/11 00:32:54;;;;;;;4.53;3.40;;;;;;;;;;5043733;28;20472;-80
2023/08/11 00:35:21;;;;;;;5.43;3.50;;;;;;;;;;5046732;28;20978;-80
2023/08/11 00:37:52;;;;;;;4.83;3.07;;;;;;;;;;5044693;28;20464;-80
2023/08/11 00:40:19;;;;;;;4.53;3.03;;;;;;;;;;5047265;28;20432;-80
2023/08/11 00:42:46;;;;;;;5.10;3.53;;;;;;;;;;5044245;28;20496;-80
2023/08/11 00:45:12;;;;;;;3.20;2.90;;;;;;;;;;5046694;28;21039;-80
2023/08/11 00:47:42;;;;;;;5.03;3.30;;;;;;;;;;5045366;28;20535;-80
2023/08/11 00:50:10;;;;;;;3.63;3.00;;;;;;;;;;5045048;28;20436;-80
2023/08/11 00:52:36;;;;;;;9.03;3.50;;;;;;;;;;5046119;28;20534;-80
2023/08/11 00:55:05;;;;;;;5.43;3.70;;;;;;;;;;5045207;28;20432;-80
2023/08/11 00:57:31;;;;;;;6.17;3.30;;;;;;;;;;5039912;28;20472;-80
2023/08/11 00:59:59;;;;;;;4.83;3.50;;;;;;;;;;5044814;28;20436;-80
2023/08/11 01:02:25;;;;;;;5.40;4.87;;;;;;;;;;5045865;28;20617;-80
2023/08/11 01:04:52;;;;;;;15.80;6.43;;;;;;;;;;5046428;28;20510;-80
2023/08/11 01:07:22;;;;;;;7.50;4.50;;;;;;;;;;5045327;28;20472;-80
2023/08/11 01:09:52;;;;;;;6.80;3.43;;;;;;;;;;5044286;28;20445;-80
2023/08/11 01:12:25;;;;;;;5.57;3.57;;;;;;;;;;5043233;28;20483;-80
2023/08/11 01:14:55;;;;;;;4.50;3.70;;;;;;;;;;5042143;28;20456;-80
2023/08/11 01:17:23;;;;;;;6.70;3.33;;;;;;;;;;5041111;28;20924;-80
2023/08/11 01:19:50;;;;;;;5.37;3.57;;;;;;;;;;5045530;28;20447;-80
2023/08/11 01:22:19;;;;;;;5.10;4.60;;;;;;;;;;5042936;28;20469;-80
2023/08/11 01:24:49;;;;;;;4.33;3.40;;;;;;;;;;5045464;28;20484;-80
2023/08/11 01:27:15;;;;;;;9.57;3.43;;;;;;;;;;5046341;28;20464;-80
2023/08/11 01:29:42;;;;;;;4.90;3.80;;;;;;;;;;5043099;28;20449;-80
2023/08/11 01:32:09;;;;;;;3.27;2.80;;;;;;;;;;5041833;28;20479;-80
2023/08/11 01:34:35;;;;;;;6.33;3.40;;;;;;;;;;5043831;28;20495;-80
2023/08/11 01:37:03;;;;;;;6.93;3.60;;;;;;;;;;5044602;28;20472;-80
2023/08/11 01:39:29;;;;;;;3.90;3.30;;;;;;;;;;5041395;28;20942;-80
2023/08/11 01:41:59;;;;;;;6.90;3.27;;;;;;;;;;5043623;28;20479;-80
2023/08/11 01:44:26;;;;;;;6.50;4.00;;;;;;;;;;5040703;28;20441;-80
2023/08/11 01:46:53;;;;;;;6.10;3.43;;;;;;;;;;5044191;28;20463;-80
2023/08/11 01:49:21;;;;;;;7.83;3.40;;;;;;;;;;5040528;28;20437;-80
2023/08/11 01:51:47;;;;;;;6.30;3.83;;;;;;;;;;5042412;28;21252;-80
2023/08/11 01:54:14;;;;;;;9.03;3.53;;;;;;;;;;5040574;28;20441;-80
2023/08/11 01:56:40;;;;;;;4.93;3.40;;;;;;;;;;5042242;28;20441;-80
2023/08/11 01:59:12;;;;;;;3.93;3.00;;;;;;;;;;5042618;28;20842;-80
2023/08/11 02:01:39;;;;;;;7.70;3.53;;;;;;;;;;5040070;28;20460;-81
2023/08/11 02:04:06;;;;;;;4.47;3.13;;;;;;;;;;5040793;28;20447;-80
2023/08/11 02:06:32;;;;;;;4.50;3.50;;;;;;;;;;5042494;28;20852;-81
2023/08/11 02:09:00;;;;;;;5.70;3.90;;;;;;;;;;5043911;28;20456;-80
2023/08/11 02:11:27;;;;;;;4.37;3.47;;;;;;;;;;5042942;28;20816;-81
2023/08/11 02:13:53;;;;;;;7.83;4.00;;;;;;;;;;5042533;28;20536;-80
2023/08/11 02:16:21;;;;;;;5.67;3.20;;;;;;;;;;5043085;28;20471;-80
2023/08/11 02:18:47;;;;;;;3.63;3.33;;;;;;;;;;5041618;28;20465;-80
2023/08/11 02:21:13;;;;;;;6.33;4.20;;;;;;;;;;5040954;28;20497;-80
2023/08/11 02:23:40;;;;;;;4.37;3.60;;;;;;;;;;5039876;28;20468;-80
2023/08/11 02:26:07;;;;;;;6.67;4.20;;;;;;;;;;5046643;28;20482;-80
2023/08/11 02:28:33;;;;;;;8.13;3.77;;;;;;;;;;5042535;28;20475;-80
2023/08/11 02:31:00;;;;;;;4.27;3.80;;;;;;;;;;5044558;28;20558;-80
2023/08/11 02:33:28;;;;;;;5.23;3.30;;;;;;;;;;5037263;28;20476;-82
2023/08/11 02:35:54;;;;;;;5.53;3.43;;;;;;;;;;5043319;28;20449;-80
2023/08/11 02:38:20;;;;;;;5.17;3.10;;;;;;;;;;5042030;28;20475;-80
2023/08/11 02:40:47;;;;;;;6.87;4.03;;;;;;;;;;5038822;28;20436;-80
2023/08/11 02:43:13;;;;;;;7.77;4.50;;;;;;;;;;5042324;28;20483;-80
2023/08/11 02:45:40;;;;;;;5.83;4.23;;;;;;;;;;5042367;28;20484;-80
2023/08/11 02:48:06;;;;;;;7.33;4.50;;;;;;;;;;5042785;28;20481;-80
2023/08/11 02:50:34;;;;;;;8.70;4.40;;;;;;;;;;5037399;28;20468;-80
2023/08/11 02:53:00;;;;;;;7.40;4.00;;;;;;;;;;5041195;28;20487;-80
2023/08/11 02:55:26;;;;;;;9.70;5.20;;;;;;;;;;5042698;28;20447;-80
2023/08/11 02:57:53;;;;;;;4.40;3.90;;;;;;;;;;5042442;28;20461;-80
2023/08/11 03:00:19;;;;;;;6.70;4.93;;;;;;;;;;5039392;28;20449;-80
2023/08/11 03:02:47;;;;;;;6.60;4.20;;;;;;;;;;5045114;28;20475;-80
2023/08/11 03:05:16;;;;;;;5.00;3.93;;;;;;;;;;5041706;28;20536;-80
2023/08/11 03:07:44;;;;;;;5.23;3.90;;;;;;;;;;5042517;28;20464;-80
2023/08/11 03:10:10;;;;;;;9.17;4.00;;;;;;;;;;5040428;28;20447;-80
2023/08/11 03:12:37;;;;;;;7.53;4.20;;;;;;;;;;5041123;28;20477;-80
2023/08/11 03:15:04;;;;;;;4.47;3.90;;;;;;;;;;5041038;28;20475;-80
2023/08/11 03:17:31;;;;;;;5.20;3.87;;;;;;;;;;5042090;28;20461;-80
2023/08/11 03:19:58;;;;;;;5.03;3.87;;;;;;;;;;5047771;28;20451;-80
2023/08/11 03:22:24;;;;;;;5.97;4.70;;;;;;;;;;5044352;28;20467;-80
2023/08/11 03:24:53;;;;;;;7.70;3.73;;;;;;;;;;5044766;28;20435;-80
2023/08/11 03:27:19;;;;;;;6.30;4.30;;;;;;;;;;5045241;28;20471;-80
2023/08/11 03:29:46;;;;;;;6.20;4.13;;;;;;;;;;5045985;28;20991;-80
2023/08/11 03:32:12;;;;;;;11.30;4.10;;;;;;;;;;5045533;28;20485;-80
2023/08/11 03:34:38;;;;;;;6.50;4.67;;;;;;;;;;5049218;28;20499;-80
2023/08/11 03:37:06;;;;;;;5.93;4.87;;;;;;;;;;5044859;28;20463;-80
2023/08/11 03:39:33;;;;;;;5.40;4.27;;;;;;;;;;5044337;28;20547;-80
2023/08/11 03:42:01;;;;;;;8.33;3.97;;;;;;;;;;5046124;28;20473;-80
2023/08/11 03:44:28;;;;;;;6.70;4.63;;;;;;;;;;5046428;28;20462;-80
2023/08/11 03:46:56;;;;;;;5.80;4.50;;;;;;;;;;5045121;28;20468;-80
2023/08/11 03:49:22;;;;;;;13.30;5.87;;;;;;;;;;5047529;28;20440;-80
2023/08/11 03:51:48;;;;;;;5.80;5.17;;;;;;;;;;5043365;28;20456;-80
2023/08/11 03:54:15;;;;;;;9.87;4.67;;;;;;;;;;5047619;28;20463;-80
2023/08/11 03:56:41;;;;;;;8.17;5.20;;;;;;;;;;5040425;28;20798;-80
2023/08/11 03:59:09;;;;;;;7.97;5.37;;;;;;;;;;5047084;28;20447;-80
2023/08/11 04:01:35;;;;;;;6.00;5.50;;;;;;;;;;5042068;28;20819;-80
2023/08/11 04:04:01;;;;;;;11.60;5.83;;;;;;;;;;5047278;28;20470;-80
2023/08/11 04:06:32;;;;;;;10.40;5.47;;;;;;;;;;5046113;28;20484;-81
2023/08/11 04:08:58;;;;;;;10.87;6.00;;;;;;;;;;5047526;28;20464;-80
2023/08/11 04:11:25;;;;;;;6.30;5.13;;;;;;;;;;5045363;28;20478;-80
2023/08/11 04:13:52;;;;;;;6.90;5.60;;;;;;;;;;5046805;28;20494;-80
2023/08/11 04:16:19;;;;;;;8.50;5.00;;;;;;;;;;5045109;28;20436;-80
2023/08/11 04:18:47;;;;;;;13.83;6.80;;;;;;;;;;5044338;28;20552;-80
2023/08/11 04:21:13;;;;;;;7.93;7.23;;;;;;;;;;5046655;28;20441;-80
2023/08/11 04:23:40;;;;;;;9.90;6.17;;;;;;;;;;5044450;28;20477;-80
2023/08/11 04:26:06;;;;;;;9.33;6.40;;;;;;;;;;5046811;28;20487;-80
2023/08/11 04:28:32;;;;;;;17.00;6.13;;;;;;;;;;5049467;28;20487;-80
2023/08/11 04:31:00;;;;;;;16.10;7.40;;;;;;;;;;5047771;28;20490;-80
2023/08/11 04:33:29;;;;;;;11.00;6.30;;;;;;;;;;5046269;28;20844;-81
2023/08/11 04:35:56;;;;;;;14.63;5.90;;;;;;;;;;5045182;28;20471;-80
2023/08/11 04:38:22;;;;;;;8.47;7.57;;;;;;;;;;5043004;28;20472;-80
2023/08/11 04:40:51;;;;;;;8.13;6.97;;;;;;;;;;5046014;28;20539;-80
2023/08/11 04:43:18;;;;;;;10.87;6.80;;;;;;;;;;5043735;28;20479;-80
2023/08/11 04:45:45;;;;;;;7.90;6.00;;;;;;;;;;5046483;28;20440;-80
2023/08/11 04:48:11;;;;;;;9.90;6.80;;;;;;;;;;5043129;28;20476;-80
2023/08/11 04:50:39;;;;;;;14.40;8.20;;;;;;;;;;5044346;28;20452;-80
2023/08/11 04:53:05;;;;;;;7.03;6.33;;;;;;;;;;5041703;28;20473;-80
2023/08/11 04:55:32;;;;;;;13.90;7.13;;;;;;;;;;5041964;28;20491;-80
2023/08/11 04:58:00;;;;;;;9.33;6.70;;;;;;;;;;5043914;28;20531;-80
2023/08/11 05:00:26;;;;;;;14.67;9.10;;;;;;;;;;5045490;28;20456;-80
2023/08/11 05:02:54;;;;;;;11.70;7.97;;;;;;;;;;5047893;28;20852;-80
2023/08/11 05:05:21;;;;;;;11.93;8.93;;;;;;;;;;5046293;28;20834;-80
2023/08/11 05:07:49;;;;;;;9.87;8.70;;;;;;;;;;5044528;28;20559;-80
2023/08/11 05:10:15;;;;;;;8.50;6.93;;;;;;;;;;5040920;28;20960;-80
2023/08/11 05:12:42;;;;;;;8.77;6.70;;;;;;;;;;5045020;28;20851;-80
2023/08/11 05:15:09;;;;;;;10.30;6.50;;;;;;;;;;5044494;28;20468;-80
2023/08/11 05:17:36;;;;;;;12.30;6.53;;;;;;;;;;5042312;28;20468;-80
2023/08/11 05:20:06;;;;;;;6.70;5.90;;;;;;;;;;5043939;28;20451;-80
2023/08/11 05:22:32;;;;;;;10.53;7.10;;;;;;;;;;5043673;28;20472;-80
2023/08/11 05:25:00;;;;;;;8.23;6.10;;;;;;;;;;5043988;28;20440;-80
2023/08/11 05:27:27;;;;;;;12.93;8.23;;;;;;;;;;5041361;28;20500;-80
2023/08/11 05:29:53;;;;;;;10.00;7.73;;;;;;;;;;5042595;28;20475;-80
2023/08/11 05:32:20;;;;;;;7.93;6.90;;;;;;;;;;5039502;28;20480;-80
2023/08/11 05:34:46;;;;;;;8.47;7.57;;;;;;;;;;5043922;28;20441;-80
2023/08/11 05:37:12;;;;;;;12.90;8.00;;;;;;;;;;5045178;28;21021;-80
2023/08/11 05:39:39;;;;;;;10.80;7.63;;;;;;;;;;5045304;28;20485;-80
2023/08/11 05:42:08;;;;;;;10.70;7.70;;;;;;;;;;5042489;28;20852;-81
2023/08/11 05:44:34;;;;;;;13.50;9.10;;;;;;;;;;5043414;28;20452;-80
2023/08/11 05:47:01;;;;;;;10.23;8.70;;;;;;;;;;5039867;28;20487;-80
2023/08/11 05:49:27;;;;;;;12.03;8.43;;;;;;;;;;5046910;28;20440;-80
2023/08/11 05:51:54;;;;;;;12.10;9.60;;;;;;;;;;5042113;28;20491;-80
2023/08/11 05:54:20;;;;;;;13.70;9.57;;;;;;;;;;5041550;28;20456;-80
2023/08/11 05:56:47;;;;;;;12.20;9.80;;;;;;;;;;5041935;28;20472;-80
2023/08/11 05:59:14;;;;;;;12.90;9.50;;;;;;;;;;5044118;28;20522;-80
2023/08/11 06:01:42;;;;;;;10.67;8.50;;;;;;;;;;5039518;28;20471;-80
2023/08/11 06:04:08;;;;;;;17.13;8.87;;;;;;;;;;5046525;28;20436;-80
2023/08/11 06:06:36;;;;;;;13.70;9.37;;;;;;;;;;5043800;28;20490;-80
2023/08/11 06:09:03;;;;;;;17.87;10.17;;;;;;;;;;5043588;28;20472;-80
2023/08/11 06:11:29;;;;;;;13.20;8.80;;;;;;;;;;5044441;28;20449;-80
2023/08/11 06:13:56;;;;;;;14.70;10.43;;;;;;;;;;5045135;28;20830;-80
2023/08/11 06:16:24;;;;;;;12.67;9.90;;;;;;;;;;5044333;28;20544;-80
2023/08/11 06:18:50;;;;;;;14.20;11.27;;;;;;;;;;5043649;28;20469;-80
2023/08/11 06:21:17;;;;;;;12.10;10.87;;;;;;;;;;5045384;28;20439;-80
2023/08/11 06:23:43;;;;;;;10.10;9.10;;;;;;;;;;5044844;28;20479;-80
2023/08/11 06:26:10;;;;;;;11.97;9.57;;;;;;;;;;5040376;28;20958;-80
2023/08/11 06:28:36;;;;;;;14.40;10.13;;;;;;;;;;5042753;28;20473;-80
2023/08/11 06:31:03;;;;;;;12.63;10.83;;;;;;;;;;5044236;28;20467;-80
2023/08/11 06:33:31;;;;;;;15.90;10.93;;;;;;;;;;5042899;28;20530;-80
2023/08/11 06:35:57;;;;;;;20.23;10.90;;;;;;;;;;5041591;28;20452;-80
2023/08/11 06:38:23;;;;;;;13.60;11.37;;;;;;;;;;5043953;28;20472;-80
2023/08/11 06:40:50;;;;;;;13.50;11.10;;;;;;;;;;5040432;28;20534;-80
2023/08/11 06:43:16;;;;;;;13.20;10.10;;;;;;;;;;5043103;28;20508;-80
2023/08/11 06:45:45;;;;;;;11.17;9.80;;;;;;;;;;5041298;28;20943;-80
2023/08/11 06:48:12;;;;;;;16.30;10.40;;;;;;;;;;5041557;28;20487;-80
2023/08/11 06:50:39;;;;;;;12.83;9.93;;;;;;;;;;5044891;28;20446;-80
2023/08/11 06:53:06;;;;;;;14.60;9.83;;;;;;;;;;5040476;28;20480;-80
2023/08/11 06:55:32;;;;;;;10.83;9.70;;;;;;;;;;5043649;28;20463;-80
2023/08/11 06:57:59;;;;;;;12.37;9.60;;;;;;;;;;5042238;28;20477;-81
2023/08/11 07:00:25;;;;;;;11.43;10.20;;;;;;;;;;5041845;28;20452;-80
2023/08/11 07:02:52;;;;;;;9.87;8.43;;;;;;;;;;5039913;28;20473;-80
2023/08/11 07:05:18;;;;;;;15.73;9.40;;;;;;;;;;5042136;28;20452;-80
2023/08/11 07:07:47;;;;;;;10.30;9.20;;;;;;;;;;5037571;28;20468;-81
2023/08/11 07:10:13;;;;;;;10.37;9.27;;;;;;;;;;5039264;28;20440;-80
2023/08/11 07:12:40;;;;;;;10.43;8.70;;;;;;;;;;5024396;28;20527;-81
2023/08/11 07:15:08;;;;;;;9.07;8.17;;;;;;;;;;5042795;28;20969;-80
2023/08/11 07:17:34;;;;;;;9.47;8.57;;;;;;;;;;5042951;28;20472;-81
2023/08/11 07:20:00;;;;;;;12.47;8.50;;;;;;;;;;5043114;28;20451;-80
2023/08/11 07:22:27;;;;;;;10.90;9.17;;;;;;;;;;5042069;28;20478;-80
2023/08/11 07:24:56;;;;;;;10.00;7.17;;;;;;;;;;5044106;28;20437;-80
2023/08/11 07:27:22;;;;;;;7.40;6.60;;;;;;;;;;5039808;28;20473;-80
2023/08/11 07:29:48;;;;;;;8.23;6.83;;;;;;;;;;5046273;28;20444;-81
2023/08/11 07:32:15;;;;;;;12.10;8.10;;;;;;;;;;5038796;28;20483;-80
2023/08/11 07:34:41;;;;;;;7.10;6.40;;;;;;;;;;5045656;28;20441;-80
2023/08/11 07:37:07;;;;;;;12.57;7.20;;;;;;;;;;5043745;28;20476;-80
2023/08/11 07:39:34;;;;;;;7.43;6.70;;;;;;;;;;5041682;28;20456;-80
2023/08/11 07:42:04;;;;;;;9.90;6.93;;;;;;;;;;5023657;28;20502;-80
2023/08/11 07:44:31;;;;;;;8.07;6.60;;;;;;;;;;5044412;28;20456;-81
2023/08/11 07:46:57;;;;;;;6.87;6.27;;;;;;;;;;5043107;28;20481;-81
2023/08/11 07:49:24;;;;;;;7.00;6.37;;;;;;;;;;5037006;28;20445;-80
2023/08/11 07:51:50;;;;;;;14.30;5.90;;;;;;;;;;5042937;28;20483;-81
2023/08/11 07:54:17;;;;;;;6.70;4.60;;;;;;;;;;5041650;28;20977;-81
2023/08/11 07:56:44;;;;;;;5.87;3.93;;;;;;;;;;5041021;28;20467;-80
2023/08/11 07:59:12;;;;;;;5.07;4.30;;;;;;;;;;5037412;28;20522;-80
2023/08/11 08:01:39;;;;;;;4.13;3.80;;;;;;;;;;5041558;28;20471;-80
2023/08/11 08:04:05;;;;;;;3.53;3.23;;;;;;;;;;5042597;28;20817;-81
2023/08/11 08:06:35;;;;;;;4.20;3.00;;;;;;;;;;5040503;28;20523;-80
2023/08/11 08:09:02;;;;;;;5.20;3.00;;;;;;;;;;5045519;28;20471;-80
2023/08/11 08:11:29;;;;;;;3.30;2.73;;;;;;;;;;5047347;28;20456;-81
2023/08/11 08:13:55;;;;;;;2.83;2.20;;;;;;;;;;5047250;28;20539;-81
2023/08/11 08:16:23;;;;;;;2.87;2.57;;;;;;;;;;5048439;28;20464;-81
2023/08/11 08:18:49;;;;;;;2.93;2.00;;;;;;;;;;5044438;28;20456;-80
2023/08/11 08:21:16;;;;;;;4.30;2.20;;;;;;;;;;5043526;28;20448;-81
2023/08/11 08:23:42;;;;;;;2.70;2.03;;;;;;;;;;5046935;28;21087;-80
2023/08/11 08:26:09;;;;;;;2.37;2.17;;;;;;;;;;5043187;28;20941;-81
2023/08/11 08:28:36;;;;;;;1.97;1.87;;;;;;;;;;5046374;28;20855;-81
2023/08/11 08:31:03;;;;;;;1.70;1.60;;;;;;;;;;5047645;28;20450;-80
2023/08/11 08:33:30;;;;;;;2.17;1.97;;;;;;;;;;5045798;28;20558;-80
2023/08/11 08:35:58;;;;;;;2.37;1.90;;;;;;;;;;5043380;28;20449;-81
2023/08/11 08:38:25;;;;;;;2.60;1.90;;;;;;;;;;5046068;28;20464;-81
2023/08/11 08:40:51;;;;;;;3.57;1.80;;;;;;;;;;5046034;28;20448;-80
2023/08/11 08:43:18;;;;;;;2.20;1.57;;;;;;;;;;5047173;28;20483;-81
2023/08/11 08:45:45;;;;;;;1.87;1.50;;;;;;;;;;5045132;28;20436;-81
2023/08/11 08:48:14;;;;;;;2.00;1.57;;;;;;;;;;5043300;28;20842;-81
2023/08/11 08:50:42;;;;;;;1.80;1.70;;;;;;;;;;5044827;28;20460;-81
2023/08/11 08:53:09;;;;;;;1.93;1.53;;;;;;;;;;5045739;28;20474;-81
2023/08/11 08:55:36;;;;;;;1.70;1.60;;;;;;;;;;5043233;28;20513;-81
2023/08/11 08:58:02;;;;;;;2.70;1.60;;;;;;;;;;5041309;28;20469;-81
2023/08/11 09:00:30;;;;;;;1.67;1.50;;;;;;;;;;5048273;28;20451;-81
2023/08/11 09:03:00;;;;;;;2.60;1.60;;;;;;;;;;5043775;28;20500;-81
2023/08/11 09:05:26;;;;;;;2.23;1.43;;;;;;;;;;5043275;28;20448;-81
2023/08/11 09:07:54;;;;;;;2.10;1.90;;;;;;;;;;5044975;28;21024;-81
2023/08/11 09:10:22;;;;;;;2.80;1.80;;;;;;;;;;5046395;28;20447;-81
2023/08/11 09:12:50;;;;;;;2.13;1.73;;;;;;;;;;5045399;28;20476;-81
2023/08/11 09:15:16;;;;;;;1.90;1.80;;;;;;;;;;5043638;28;21136;-81
2023/08/11 09:17:45;;;;;;;2.57;2.00;;;;;;;;;;5042996;28;20476;-81
2023/08/11 09:20:12;;;;;;;2.33;1.93;;;;;;;;;;5046297;28;20524;-80
2023/08/11 09:22:40;;;;;;;3.13;2.37;;;;;;;;;;5039419;28;20921;-81
2023/08/11 09:25:10;;;;;;;2.10;1.90;;;;;;;;;;5040930;28;20448;-81
2023/08/11 09:27:36;;;;;;;1.70;1.60;;;;;;;;;;5042965;28;20511;-81
2023/08/11 09:30:03;;;;;;;1.90;1.70;;;;;;;;;;5042794;28;20962;-81
2023/08/11 09:32:31;;;;;;;2.10;2.00;;;;;;;;;;5046003;28;20469;-81
2023/08/11 09:34:58;;;;;;;4.23;1.90;;;;;;;;;;5045293;28;20479;-81
2023/08/11 09:37:24;;;;;;;1.80;1.70;;;;;;;;;;5043916;28;20465;-81
2023/08/11 09:39:55;;;;;;;2.30;1.57;;;;;;;;;;5043178;28;20447;-81
2023/08/11 09:42:27;;;;;;;4.77;1.57;;;;;;;;;;5042015;28;20507;-81
2023/08/11 09:44:54;;;;;;;1.83;1.40;;;;;;;;;;5040839;28;20801;-81
2023/08/11 09:47:21;;;;;;;2.17;1.43;;;;;;;;;;5041248;28;20479;-81
2023/08/11 09:49:47;;;;;;;1.63;1.53;;;;;;;;;;5042892;28;20445;-81
2023/08/11 09:52:14;;;;;;;1.30;1.20;;;;;;;;;;5044050;28;20472;-81
2023/08/11 09:54:41;;;;;;;2.37;1.10;;;;;;;;;;5043423;28;20463;-81
2023/08/11 09:57:08;;;;;;;2.03;1.43;;;;;;;;;;5045034;28;20469;-81
2023/08/11 09:59:36;;;;;;;3.90;1.83;;;;;;;;;;5043086;28;20455;-81
2023/08/11 10:02:03;;;;;;;2.30;1.60;;;;;;;;;;5040561;28;20479;-81
2023/08/11 10:04:33;;;;;;;1.53;1.43;;;;;;;;;;5045353;28;20452;-80
2023/08/11 10:07:00;;;;;;;5.60;2.80;;;;;;;;;;5044630;28;20478;-81
2023/08/11 10:09:26;;;;;;;1.70;1.60;;;;;;;;;;5043620;28;20489;-81
2023/08/11 10:11:55;;;;;;;1.40;1.30;;;;;;;;;;5040290;28;20507;-81
2023/08/11 10:14:21;;;;;;;1.77;1.67;;;;;;;;;;5039985;28;20481;-81
2023/08/11 10:16:51;;;;;;;2.07;1.90;;;;;;;;;;5043585;28;20460;-81
2023/08/11 10:19:18;;;;;;;2.60;1.73;;;;;;;;;;5045144;28;20428;-81
2023/08/11 10:21:45;;;;;;;2.03;1.83;;;;;;;;;;5042400;28;20518;-81
2023/08/11 10:24:11;;;;;;;1.93;1.83;;;;;;;;;;5043347;28;20450;-81
2023/08/11 10:26:37;;;;;;;2.23;2.10;;;;;;;;;;5043038;28;20440;-82
2023/08/11 10:29:04;;;;;;;5.60;2.20;;;;;;;;;;5043437;28;20477;-81
2023/08/11 10:31:32;;;;;;;3.50;2.07;;;;;;;;;;5042203;28;20526;-81
2023/08/11 10:34:06;;;;;;;2.00;1.83;;;;;;;;;;5044250;28;21048;-81
2023/08/11 10:36:32;;;;;;;2.43;2.23;;;;;;;;;;5043913;28;20455;-81
2023/08/11 10:39:01;;;;;;;4.03;2.37;;;;;;;;;;5041932;28;20463;-81
2023/08/11 10:41:28;;;;;;;4.13;2.40;;;;;;;;;;5043803;28;20441;-81
2023/08/11 10:43:55;;;;;;;3.50;2.30;;;;;;;;;;5042959;28;20459;-81
2023/08/11 10:46:22;;;;;;;2.20;2.10;;;;;;;;;;5038702;28;20437;-81
2023/08/11 10:48:54;;;;;;;2.70;2.50;;;;;;;;;;5038774;28;20476;-81
2023/08/11 10:51:32;;;;;;;8.40;2.43;;;;;;;;;;5043750;28;20834;-81
2023/08/11 10:54:01;;;;;;;3.17;2.43;;;;;;;;;;5043009;28;20471;-81
2023/08/11 10:56:29;;;;;;;2.83;2.53;;;;;;;;;;5042205;28;20444;-82
2023/08/11 10:59:09;;;;;;;2.50;2.30;;;;;;;;;;5043480;28;20486;-81
2023/08/11 11:01:36;;;;;;;2.70;2.00;;;;;;;;;;5046406;28;20447;-81
2023/08/11 11:04:03;;;;;;;2.53;2.30;;;;;;;;;;5042843;28;20530;-81
2023/08/11 11:06:31;;;;;;;4.10;2.30;;;;;;;;;;5042284;28;20507;-82
2023/08/11 11:08:57;;;;;;;1.97;1.87;;;;;;;;;;5043654;28;20492;-80
2023/08/11 11:11:23;;;;;;;5.50;2.37;;;;;;;;;;5044193;28;20451;-81
2023/08/11 11:13:50;;;;;;;2.43;2.23;;;;;;;;;;5042965;28;20548;-81
2023/08/11 11:16:17;;;;;;;2.37;2.27;;;;;;;;;;5042174;28;20466;-81
2023/08/11 11:18:43;;;;;;;2.97;2.50;;;;;;;;;;5046692;28;20457;-80
2023/08/11 11:21:12;;;;;;;2.93;2.60;;;;;;;;;;5041387;28;20522;-81
2023/08/11 11:23:44;;;;;;;3.00;2.80;;;;;;;;;;5040082;28;20471;-81
2023/08/11 11:26:10;;;;;;;3.17;2.80;;;;;;;;;;5040294;28;20437;-81
2023/08/11 11:28:36;;;;;;;2.67;2.50;;;;;;;;;;5040656;28;20488;-81
2023/08/11 11:31:04;;;;;;;2.43;2.23;;;;;;;;;;5042881;28;20953;-81
2023/08/11 11:33:31;;;;;;;3.93;2.30;;;;;;;;;;5040726;28;20484;-82
2023/08/11 11:35:59;;;;;;;2.47;2.27;;;;;;;;;;5038896;28;20453;-81
2023/08/11 11:38:25;;;;;;;5.27;2.27;;;;;;;;;;5038794;28;20464;-81
2023/08/11 11:40:54;;;;;;;2.50;2.30;;;;;;;;;;5045340;28;20545;-81
2023/08/11 11:43:20;;;;;;;4.23;2.30;;;;;;;;;;5045455;28;20472;-81
2023/08/11 11:45:50;;;;;;;2.83;2.40;;;;;;;;;;5048987;28;20470;-81
2023/08/11 11:48:17;;;;;;;2.87;2.50;;;;;;;;;;5046460;28;21284;-81
2023/08/11 11:50:43;;;;;;;2.70;2.30;;;;;;;;;;5047182;28;20456;-78
2023/08/11 11:53:10;;;;;;;2.57;2.37;;;;;;;;;;5043399;28;20886;-79
2023/08/11 11:55:43;;;;;;;3.03;2.60;;;;;;;;;;5045359;28;20941;-79
2023/08/11 11:58:11;;;;;;;2.07;1.97;;;;;;;;;;5040013;28;20894;-79
2023/08/11 12:00:38;;;;;;;2.50;2.30;;;;;;;;;;5047208;28;20441;-79
2023/08/11 12:03:04;;;;;;;2.50;2.30;;;;;;;;;;5042649;28;20468;-79
2023/08/11 12:05:31;;;;;;;2.50;2.30;;;;;;;;;;5044260;28;20448;-79
2023/08/11 12:07:57;;;;;;;2.33;2.13;;;;;;;;;;5046759;28;20461;-79
2023/08/11 12:10:31;;;;;;;3.03;2.10;;;;;;;;;;5046983;28;20447;-80
2023/08/11 12:12:59;;;;;;;2.10;1.93;;;;;;;;;;5043318;28;20475;-80
2023/08/11 12:15:27;;;;;;;2.43;2.23;;;;;;;;;;5044618;28;20459;-79
2023/08/11 12:17:54;;;;;;;2.93;2.00;;;;;;;;;;5044721;28;20471;-79
2023/08/11 12:20:21;;;;;;;2.37;2.20;;;;;;;;;;5045557;28;20436;-80
2023/08/11 12:22:48;;;;;;;2.37;2.00;;;;;;;;;;5044164;28;20486;-80
2023/08/11 12:25:14;;;;;;;2.20;1.80;;;;;;;;;;5047810;28;20440;-79
2023/08/11 12:27:41;;;;;;;3.20;2.10;;;;;;;;;;5044056;28;20475;-80
2023/08/11 12:30:10;;;;;;;2.17;1.90;;;;;;;;;;5044520;28;20473;-79
2023/08/11 12:32:38;;;;;;;2.43;2.23;;;;;;;;;;5047614;28;20485;-80
2023/08/11 12:35:05;;;;;;;4.63;1.50;;;;;;;;;;5047230;28;20825;-80
2023/08/11 12:37:31;;;;;;;3.77;2.10;;;;;;;;;;5044668;28;20488;-79
2023/08/11 12:39:57;;;;;;;6.73;1.97;;;;;;;;;;5045341;28;20475;-79
2023/08/11 12:42:24;;;;;;;2.13;2.03;;;;;;;;;;5045110;28;20997;-79
2023/08/11 12:44:50;;;;;;;3.10;1.73;;;;;;;;;;5045816;28;20449;-80
2023/08/11 12:47:16;;;;;;;2.40;1.37;;;;;;;;;;5041431;28;20472;-80
2023/08/11 12:49:44;;;;;;;4.30;1.80;;;;;;;;;;5043593;28;20502;-80
2023/08/11 12:52:11;;;;;;;2.23;1.40;;;;;;;;;;5041928;28;20483;-79
2023/08/11 12:54:42;;;;;;;4.50;1.60;;;;;;;;;;5044283;28;20449;-79
2023/08/11 12:57:09;;;;;;;3.93;1.53;;;;;;;;;;5044759;28;20522;-81
2023/08/11 12:59:36;;;;;;;3.00;2.07;;;;;;;;;;5046911;28;20790;-79
2023/08/11 13:02:02;;;;;;;3.37;2.00;;;;;;;;;;5045603;28;20484;-80
2023/08/11 13:04:28;;;;;;;4.17;1.90;;;;;;;;;;5045092;28;20964;-79
2023/08/11 13:06:56;;;;;;;1.67;1.57;;;;;;;;;;5044040;28;20465;-79
2023/08/11 13:09:23;;;;;;;2.13;1.93;;;;;;;;;;5042593;28;20480;-80
2023/08/11 13:11:49;;;;;;;3.40;2.07;;;;;;;;;;5044511;28;20479;-80
2023/08/11 13:14:15;;;;;;;2.00;1.40;;;;;;;;;;5046035;28;20464;-79
2023/08/11 13:16:42;;;;;;;2.13;1.60;;;;;;;;;;5042219;28;20449;-79
2023/08/11 13:19:08;;;;;;;1.90;1.60;;;;;;;;;;5046504;28;20444;-80
2023/08/11 13:21:34;;;;;;;2.23;2.03;;;;;;;;;;5040393;28;20444;-80
2023/08/11 13:24:02;;;;;;;5.83;2.23;;;;;;;;;;5044935;28;20444;-80
2023/08/11 13:26:29;;;;;;;5.80;1.87;;;;;;;;;;5041667;28;20476;-81
2023/08/11 13:28:57;;;;;;;2.20;1.83;;;;;;;;;;5044944;28;21031;-79
2023/08/11 13:31:23;;;;;;;2.40;1.97;;;;;;;;;;5043644;28;20953;-81
2023/08/11 13:33:50;;;;;;;2.60;2.23;;;;;;;;;;5041622;28;20957;-79
2023/08/11 13:36:16;;;;;;;3.53;1.70;;;;;;;;;;5044582;28;20448;-79
2023/08/11 13:38:43;;;;;;;2.20;1.47;;;;;;;;;;5043237;28;20464;-80
2023/08/11 13:41:11;;;;;;;4.50;2.10;;;;;;;;;;5043838;28;20506;-80
2023/08/11 13:43:38;;;;;;;1.80;1.70;;;;;;;;;;5042399;28;20520;-79
2023/08/11 13:46:04;;;;;;;1.80;1.70;;;;;;;;;;5044016;28;20441;-79
2023/08/11 13:48:31;;;;;;;1.80;1.70;;;;;;;;;;5043648;28;20480;-80
2023/08/11 13:50:57;;;;;;;2.83;1.97;;;;;;;;;;5045286;28;20518;-79
2023/08/11 13:53:24;;;;;;;3.53;1.70;;;;;;;;;;5045450;28;20472;-79
2023/08/11 13:55:52;;;;;;;3.93;2.37;;;;;;;;;;5044028;28;20472;-79
2023/08/11 13:58:19;;;;;;;1.57;1.47;;;;;;;;;;5046399;28;20490;-80
2023/08/11 14:00:47;;;;;;;2.40;2.03;;;;;;;;;;5044959;28;20449;-80
2023/08/11 14:03:13;;;;;;;3.43;2.10;;;;;;;;;;5043137;28;20487;-80
2023/08/11 14:05:39;;;;;;;2.40;1.73;;;;;;;;;;5048271;28;20443;-79
2023/08/11 14:08:06;;;;;;;2.40;1.80;;;;;;;;;;5043674;28;20467;-79
2023/08/11 14:10:32;;;;;;;3.60;2.13;;;;;;;;;;5042147;28;20480;-80
2023/08/11 14:12:58;;;;;;;2.27;1.70;;;;;;;;;;5041652;28;20476;-79
2023/08/11 14:15:26;;;;;;;3.30;2.43;;;;;;;;;;5041267;28;20842;-79
2023/08/11 14:17:55;;;;;;;3.00;2.00;;;;;;;;;;5039389;28;20818;-80
2023/08/11 14:20:21;;;;;;;2.20;2.00;;;;;;;;;;5043348;28;20437;-79
2023/08/11 14:22:47;;;;;;;2.50;2.30;;;;;;;;;;5043152;28;20472;-80
2023/08/11 14:25:14;;;;;;;2.40;2.20;;;;;;;;;;5047609;28;20456;-80
2023/08/11 14:27:40;;;;;;;2.97;1.83;;;;;;;;;;5041751;28;20850;-79
2023/08/11 14:30:07;;;;;;;3.00;2.40;;;;;;;;;;5042667;28;20487;-79
2023/08/11 14:32:35;;;;;;;2.30;2.10;;;;;;;;;;5041314;28;20559;-79
2023/08/11 14:35:02;;;;;;;2.77;2.57;;;;;;;;;;5043957;28;20552;-79
2023/08/11 14:37:28;;;;;;;4.07;2.60;;;;;;;;;;5040726;28;20465;-79
2023/08/11 14:39:53;;;;;;;4.03;2.73;;;;;;;;;;5044671;28;20444;-79